sensor_id;sensor_type;location;lat;lon;timestamp;pressure;altitude;pressure_sealevel;temperature;humidity
72975;BME280;61166;54.228;37.632;2023-02-27T00:01:05;98876.13;;;-3.79;nan
72975;BME280;61166;54.228;37.632;2023-02-27T00:03:32;98875.59;;;-3.73;nan
72975;BME280;61166;54.228;37.632;2023-02-27T00:05:59;98878.31;;;-3.74;nan
72975;BME280;61166;54.228;37.632;2023-02-27T00:08:25;98872.94;;;-3.61;nan
72975;BME280;61166;54.228;37.632;2023-02-27T00:10:52;98881.09;;;-3.56;nan
72975;BME280;61166;54.228;37.632;2023-02-27T00:13:18;98864.91;;;-3.47;nan
72975;BME280;61166;54.228;37.632;2023-02-27T00:15:46;98864.59;;;-3.44;nan
72975;BME280;61166;54.228;37.632;2023-02-27T00:18:13;98876.16;;;-3.29;nan
72975;BME280;61166;54.228;37.632;2023-02-27T00:23:07;98878.78;;;-3.10;nan
72975;BME280;61166;54.228;37.632;2023-02-27T00:25:34;98873.63;;;-3.10;nan
72975;BME280;61166;54.228;37.632;2023-02-27T00:28:00;98872.16;;;-3.03;nan
72975;BME280;61166;54.228;37.632;2023-02-27T00:30:27;98880.59;;;-2.91;nan
72975;BME280;61166;54.228;37.632;2023-02-27T00:32:54;98883.41;;;-2.84;nan
72975;BME280;61166;54.228;37.632;2023-02-27T00:35:21;98882.72;;;-2.86;nan
72975;BME280;61166;54.228;37.632;2023-02-27T00:37:47;98876.78;;;-2.77;nan
72975;BME280;61166;54.228;37.632;2023-02-27T00:40:14;98897.63;;;-2.80;nan
72975;BME280;61166;54.228;37.632;2023-02-27T00:42:41;98897.91;;;-2.74;nan
72975;BME280;61166;54.228;37.632;2023-02-27T00:45:08;98904.41;;;-2.79;nan
72975;BME280;61166;54.228;37.632;2023-02-27T00:47:35;98908.06;;;-2.82;nan
72975;BME280;61166;54.228;37.632;2023-02-27T00:50:02;98908.88;;;-2.81;nan
72975;BME280;61166;54.228;37.632;2023-02-27T00:52:29;98923.38;;;-2.80;nan
72975;BME280;61166;54.228;37.632;2023-02-27T00:54:56;98916.03;;;-2.85;nan
72975;BME280;61166;54.228;37.632;2023-02-27T00:57:22;98935.13;;;-2.87;nan
72975;BME280;61166;54.228;37.632;2023-02-27T00:59:50;98931.91;;;-2.80;nan
72975;BME280;61166;54.228;37.632;2023-02-27T01:02:16;98933.38;;;-2.87;nan
72975;BME280;61166;54.228;37.632;2023-02-27T01:04:43;98939.75;;;-2.81;nan
72975;BME280;61166;54.228;37.632;2023-02-27T01:07:10;98941.66;;;-2.83;nan
72975;BME280;61166;54.228;37.632;2023-02-27T01:09:36;98950.06;;;-2.81;nan
72975;BME280;61166;54.228;37.632;2023-02-27T01:12:03;98948.44;;;-2.73;nan
72975;BME280;61166;54.228;37.632;2023-02-27T01:14:30;98956.56;;;-2.77;nan
72975;BME280;61166;54.228;37.632;2023-02-27T01:16:56;98959.56;;;-2.72;nan
72975;BME280;61166;54.228;37.632;2023-02-27T01:19:24;98966.84;;;-2.77;nan
72975;BME280;61166;54.228;37.632;2023-02-27T01:21:51;98972.56;;;-2.74;nan
72975;BME280;61166;54.228;37.632;2023-02-27T01:24:18;98974.22;;;-2.63;nan
72975;BME280;61166;54.228;37.632;2023-02-27T01:26:45;98985.28;;;-2.72;nan
72975;BME280;61166;54.228;37.632;2023-02-27T01:29:12;98988.69;;;-2.72;nan
72975;BME280;61166;54.228;37.632;2023-02-27T01:31:39;98988.72;;;-2.62;nan
72975;BME280;61166;54.228;37.632;2023-02-27T01:34:05;98987.47;;;-2.68;nan
72975;BME280;61166;54.228;37.632;2023-02-27T01:36:33;98991.53;;;-2.65;nan
72975;BME280;61166;54.228;37.632;2023-02-27T01:38:59;98988.84;;;-2.63;nan
72975;BME280;61166;54.228;37.632;2023-02-27T01:41:26;98996.69;;;-2.65;nan
72975;BME280;61166;54.228;37.632;2023-02-27T01:44:03;99009.03;;;-2.59;nan
72975;BME280;61166;54.228;37.632;2023-02-27T01:46:31;99003.75;;;-2.57;nan
72975;BME280;61166;54.228;37.632;2023-02-27T01:49:11;99007.50;;;-2.71;nan
72975;BME280;61166;54.228;37.632;2023-02-27T01:51:49;98994.78;;;-2.73;nan
72975;BME280;61166;54.228;37.632;2023-02-27T01:54:19;99019.44;;;-2.70;nan
72975;BME280;61166;54.228;37.632;2023-02-27T01:56:47;99025.97;;;-2.66;nan
72975;BME280;61166;54.228;37.632;2023-02-27T01:59:15;99020.00;;;-2.67;nan
72975;BME280;61166;54.228;37.632;2023-02-27T02:01:42;99031.63;;;-2.72;nan
72975;BME280;61166;54.228;37.632;2023-02-27T02:04:25;99022.53;;;-2.76;nan
72975;BME280;61166;54.228;37.632;2023-02-27T02:06:57;99027.69;;;-2.76;nan
72975;BME280;61166;54.228;37.632;2023-02-27T02:09:25;99034.97;;;-2.81;nan
72975;BME280;61166;54.228;37.632;2023-02-27T02:11:53;99040.56;;;-2.76;nan
72975;BME280;61166;54.228;37.632;2023-02-27T02:14:20;99044.31;;;-2.80;nan
72975;BME280;61166;54.228;37.632;2023-02-27T02:31:20;99056.53;;;-2.73;nan
72975;BME280;61166;54.228;37.632;2023-02-27T02:42:25;99077.91;;;-2.82;nan
72975;BME280;61166;54.228;37.632;2023-02-27T02:45:11;99073.19;;;-2.77;nan
72975;BME280;61166;54.228;37.632;2023-02-27T02:50:28;99089.19;;;-2.73;nan
72975;BME280;61166;54.228;37.632;2023-02-27T02:55:44;99099.63;;;-2.75;nan
72975;BME280;61166;54.228;37.632;2023-02-27T03:00:59;99097.19;;;-2.76;nan
72975;BME280;61166;54.228;37.632;2023-02-27T03:03:31;99093.91;;;-2.78;nan
72975;BME280;61166;54.228;37.632;2023-02-27T03:06:07;99097.84;;;-2.74;nan
72975;BME280;61166;54.228;37.632;2023-02-27T03:08:54;99109.09;;;-2.75;nan
72975;BME280;61166;54.228;37.632;2023-02-27T03:11:23;99105.41;;;-2.82;nan
72975;BME280;61166;54.228;37.632;2023-02-27T03:14:02;99111.94;;;-2.78;nan
72975;BME280;61166;54.228;37.632;2023-02-27T03:16:43;99112.22;;;-2.72;nan
72975;BME280;61166;54.228;37.632;2023-02-27T03:21:50;99111.00;;;-2.77;nan
72975;BME280;61166;54.228;37.632;2023-02-27T03:24:25;99125.63;;;-2.78;nan
72975;BME280;61166;54.228;37.632;2023-02-27T03:26:56;99129.00;;;-2.77;nan
72975;BME280;61166;54.228;37.632;2023-02-27T03:29:34;99115.69;;;-2.82;nan
72975;BME280;61166;54.228;37.632;2023-02-27T03:32:07;99117.47;;;-2.83;nan
72975;BME280;61166;54.228;37.632;2023-02-27T03:34:38;99129.22;;;-2.90;nan
72975;BME280;61166;54.228;37.632;2023-02-27T03:40:09;99142.47;;;-2.94;nan
72975;BME280;61166;54.228;37.632;2023-02-27T03:43:01;99136.13;;;-2.90;nan
72975;BME280;61166;54.228;37.632;2023-02-27T03:46:02;99141.28;;;-2.90;nan
72975;BME280;61166;54.228;37.632;2023-02-27T03:48:27;99146.56;;;-2.92;nan
72975;BME280;61166;54.228;37.632;2023-02-27T03:55:57;99167.63;;;-2.98;nan
72975;BME280;61166;54.228;37.632;2023-02-27T03:58:26;99168.59;;;-2.99;nan
72975;BME280;61166;54.228;37.632;2023-02-27T04:00:53;99177.38;;;-3.02;nan
72975;BME280;61166;54.228;37.632;2023-02-27T04:03:20;99183.25;;;-3.11;nan
72975;BME280;61166;54.228;37.632;2023-02-27T04:05:47;99185.44;;;-3.27;nan
72975;BME280;61166;54.228;37.632;2023-02-27T04:13:46;99171.47;;;-3.45;nan
72975;BME280;61166;54.228;37.632;2023-02-27T04:19:00;99180.78;;;-3.33;nan
72975;BME280;61166;54.228;37.632;2023-02-27T04:27:05;99207.16;;;-3.20;nan
72975;BME280;61166;54.228;37.632;2023-02-27T04:29:41;99206.41;;;-3.11;nan
72975;BME280;61166;54.228;37.632;2023-02-27T04:32:17;99206.47;;;-3.01;nan
72975;BME280;61166;54.228;37.632;2023-02-27T04:34:53;99214.28;;;-2.91;nan
72975;BME280;61166;54.228;37.632;2023-02-27T04:37:49;99216.56;;;-2.88;nan
72975;BME280;61166;54.228;37.632;2023-02-27T04:40:25;99213.00;;;-2.97;nan
72975;BME280;61166;54.228;37.632;2023-02-27T04:42:54;99223.75;;;-2.92;nan
72975;BME280;61166;54.228;37.632;2023-02-27T04:45:25;99223.63;;;-2.90;nan
72975;BME280;61166;54.228;37.632;2023-02-27T04:47:57;99232.28;;;-2.91;nan
72975;BME280;61166;54.228;37.632;2023-02-27T04:50:46;99235.56;;;-2.89;nan
72975;BME280;61166;54.228;37.632;2023-02-27T04:53:26;99241.56;;;-2.79;nan
72975;BME280;61166;54.228;37.632;2023-02-27T04:56:05;99246.47;;;-2.76;nan
72975;BME280;61166;54.228;37.632;2023-02-27T04:58:36;99254.88;;;-2.74;nan
72975;BME280;61166;54.228;37.632;2023-02-27T05:01:14;99242.44;;;-2.69;nan
72975;BME280;61166;54.228;37.632;2023-02-27T05:03:46;99253.94;;;-2.73;nan
72975;BME280;61166;54.228;37.632;2023-02-27T05:06:16;99259.53;;;-2.68;nan
72975;BME280;61166;54.228;37.632;2023-02-27T05:14:03;99266.78;;;-2.73;nan
72975;BME280;61166;54.228;37.632;2023-02-27T05:19:06;99279.38;;;-2.59;nan
72975;BME280;61166;54.228;37.632;2023-02-27T05:24:38;99286.66;;;-2.64;nan
72975;BME280;61166;54.228;37.632;2023-02-27T05:29:59;99290.34;;;-2.57;nan
72975;BME280;61166;54.228;37.632;2023-02-27T05:32:36;99290.34;;;-2.57;nan
72975;BME280;61166;54.228;37.632;2023-02-27T05:35:17;99296.19;;;-2.55;nan
72975;BME280;61166;54.228;37.632;2023-02-27T05:38:10;99291.38;;;-2.48;nan
72975;BME280;61166;54.228;37.632;2023-02-27T05:40:44;99295.81;;;-2.50;nan
72975;BME280;61166;54.228;37.632;2023-02-27T05:43:17;99305.38;;;-2.41;nan
72975;BME280;61166;54.228;37.632;2023-02-27T05:45:47;99312.16;;;-2.40;nan
72975;BME280;61166;54.228;37.632;2023-02-27T05:48:20;99313.09;;;-2.41;nan
72975;BME280;61166;54.228;37.632;2023-02-27T05:50:50;99325.00;;;-2.19;nan
72975;BME280;61166;54.228;37.632;2023-02-27T05:53:20;99306.59;;;-2.15;nan
72975;BME280;61166;54.228;37.632;2023-02-27T05:55:50;99312.75;;;-2.06;nan
72975;BME280;61166;54.228;37.632;2023-02-27T05:58:37;99313.78;;;-1.88;nan
72975;BME280;61166;54.228;37.632;2023-02-27T06:01:08;99326.84;;;-1.70;nan
72975;BME280;61166;54.228;37.632;2023-02-27T06:03:36;99337.22;;;-1.60;nan
72975;BME280;61166;54.228;37.632;2023-02-27T06:06:07;99342.56;;;-1.43;nan
72975;BME280;61166;54.228;37.632;2023-02-27T06:08:36;99347.69;;;-0.93;nan
72975;BME280;61166;54.228;37.632;2023-02-27T06:11:03;99340.50;;;-0.51;nan
72975;BME280;61166;54.228;37.632;2023-02-27T06:13:30;99345.63;;;-0.22;nan
72975;BME280;61166;54.228;37.632;2023-02-27T06:15:57;99392.44;;;-0.15;nan
72975;BME280;61166;54.228;37.632;2023-02-27T06:18:23;99345.97;;;0.03;nan
72975;BME280;61166;54.228;37.632;2023-02-27T06:20:50;99336.38;;;1.05;nan
72975;BME280;61166;54.228;37.632;2023-02-27T06:23:17;99326.72;;;3.37;nan
72975;BME280;61166;54.228;37.632;2023-02-27T06:25:43;99337.75;;;3.22;nan
72975;BME280;61166;54.228;37.632;2023-02-27T06:28:10;99334.94;;;3.08;nan
72975;BME280;61166;54.228;37.632;2023-02-27T06:30:37;99330.63;;;2.24;nan
72975;BME280;61166;54.228;37.632;2023-02-27T06:33:04;99348.59;;;1.74;nan
72975;BME280;61166;54.228;37.632;2023-02-27T06:35:30;99360.94;;;1.01;nan
72975;BME280;61166;54.228;37.632;2023-02-27T06:37:57;99366.09;;;0.55;nan
72975;BME280;61166;54.228;37.632;2023-02-27T06:40:24;99379.31;;;0.06;nan
72975;BME280;61166;54.228;37.632;2023-02-27T06:42:51;99374.47;;;-0.07;nan
72975;BME280;61166;54.228;37.632;2023-02-27T06:50:12;99388.50;;;-0.77;nan
72975;BME280;61166;54.228;37.632;2023-02-27T06:52:39;99388.63;;;-0.50;nan
72975;BME280;61166;54.228;37.632;2023-02-27T06:55:07;99396.38;;;-0.30;nan
72975;BME280;61166;54.228;37.632;2023-02-27T06:57:34;99437.88;;;-0.22;nan
72975;BME280;61166;54.228;37.632;2023-02-27T07:00:03;99382.78;;;-0.32;nan
72975;BME280;61166;54.228;37.632;2023-02-27T07:02:30;99390.75;;;0.03;nan
72975;BME280;61166;54.228;37.632;2023-02-27T07:04:56;99393.16;;;0.24;nan
72975;BME280;61166;54.228;37.632;2023-02-27T07:07:23;99389.81;;;0.51;nan
72975;BME280;61166;54.228;37.632;2023-02-27T07:10:06;99400.47;;;1.38;nan
72975;BME280;61166;54.228;37.632;2023-02-27T07:12:34;99397.28;;;1.80;nan
72975;BME280;61166;54.228;37.632;2023-02-27T07:15:01;99409.69;;;2.12;nan
72975;BME280;61166;54.228;37.632;2023-02-27T07:17:27;99408.69;;;2.39;nan
72975;BME280;61166;54.228;37.632;2023-02-27T07:19:54;99406.22;;;2.03;nan
72975;BME280;61166;54.228;37.632;2023-02-27T07:22:20;99412.28;;;2.12;nan
72975;BME280;61166;54.228;37.632;2023-02-27T07:24:47;99419.75;;;2.15;nan
72975;BME280;61166;54.228;37.632;2023-02-27T07:27:14;99413.31;;;2.01;nan
72975;BME280;61166;54.228;37.632;2023-02-27T07:29:41;99408.59;;;1.96;nan
72975;BME280;61166;54.228;37.632;2023-02-27T07:32:07;99407.72;;;2.40;nan
72975;BME280;61166;54.228;37.632;2023-02-27T07:34:34;99413.28;;;2.45;nan
72975;BME280;61166;54.228;37.632;2023-02-27T07:37:00;99413.03;;;2.98;nan
72975;BME280;61166;54.228;37.632;2023-02-27T07:39:27;99401.44;;;3.26;nan
72975;BME280;61166;54.228;37.632;2023-02-27T07:41:54;99414.75;;;3.31;nan
72975;BME280;61166;54.228;37.632;2023-02-27T07:44:20;99421.13;;;4.26;nan
72975;BME280;61166;54.228;37.632;2023-02-27T07:46:47;99417.78;;;5.81;nan
72975;BME280;61166;54.228;37.632;2023-02-27T07:49:13;99405.50;;;6.42;nan
72975;BME280;61166;54.228;37.632;2023-02-27T07:51:40;99419.22;;;6.73;nan
72975;BME280;61166;54.228;37.632;2023-02-27T07:54:06;99416.91;;;5.43;nan
72975;BME280;61166;54.228;37.632;2023-02-27T07:56:33;99422.31;;;5.87;nan
72975;BME280;61166;54.228;37.632;2023-02-27T07:59:00;99418.28;;;5.30;nan
72975;BME280;61166;54.228;37.632;2023-02-27T08:01:26;99433.22;;;5.14;nan
72975;BME280;61166;54.228;37.632;2023-02-27T08:03:54;99428.09;;;5.28;nan
72975;BME280;61166;54.228;37.632;2023-02-27T08:06:21;99446.78;;;5.40;nan
72975;BME280;61166;54.228;37.632;2023-02-27T08:08:49;99446.69;;;5.56;nan
72975;BME280;61166;54.228;37.632;2023-02-27T08:11:16;99458.47;;;4.66;nan
72975;BME280;61166;54.228;37.632;2023-02-27T08:13:42;99459.53;;;4.08;nan
72975;BME280;61166;54.228;37.632;2023-02-27T08:16:27;99475.88;;;3.44;nan
72975;BME280;61166;54.228;37.632;2023-02-27T08:18:55;99471.09;;;3.23;nan
72975;BME280;61166;54.228;37.632;2023-02-27T08:21:22;99466.25;;;3.28;nan
72975;BME280;61166;54.228;37.632;2023-02-27T08:23:48;99463.31;;;3.23;nan
72975;BME280;61166;54.228;37.632;2023-02-27T08:26:15;99468.75;;;3.46;nan
72975;BME280;61166;54.228;37.632;2023-02-27T08:28:41;99473.44;;;3.42;nan
72975;BME280;61166;54.228;37.632;2023-02-27T08:31:08;99467.34;;;3.17;nan
72975;BME280;61166;54.228;37.632;2023-02-27T08:33:35;99471.25;;;2.79;nan
72975;BME280;61166;54.228;37.632;2023-02-27T08:36:01;99473.88;;;2.36;nan
72975;BME280;61166;54.228;37.632;2023-02-27T08:38:28;99480.63;;;2.03;nan
72975;BME280;61166;54.228;37.632;2023-02-27T08:40:55;99478.25;;;2.09;nan
72975;BME280;61166;54.228;37.632;2023-02-27T08:43:22;99481.22;;;2.14;nan
72975;BME280;61166;54.228;37.632;2023-02-27T08:45:49;99482.50;;;2.36;nan
72975;BME280;61166;54.228;37.632;2023-02-27T08:48:16;99483.28;;;2.28;nan
72975;BME280;61166;54.228;37.632;2023-02-27T08:50:43;99486.09;;;1.82;nan
72975;BME280;61166;54.228;37.632;2023-02-27T08:53:10;99474.41;;;1.95;nan
72975;BME280;61166;54.228;37.632;2023-02-27T08:55:37;99487.59;;;2.02;nan
72975;BME280;61166;54.228;37.632;2023-02-27T08:58:03;99484.09;;;2.11;nan
72975;BME280;61166;54.228;37.632;2023-02-27T09:00:30;99482.00;;;2.58;nan
72975;BME280;61166;54.228;37.632;2023-02-27T09:02:56;99490.28;;;2.62;nan
72975;BME280;61166;54.228;37.632;2023-02-27T09:05:23;99479.34;;;3.10;nan
72975;BME280;61166;54.228;37.632;2023-02-27T09:07:49;99480.81;;;3.13;nan
72975;BME280;61166;54.228;37.632;2023-02-27T09:10:16;99480.81;;;3.71;nan
72975;BME280;61166;54.228;37.632;2023-02-27T09:12:43;99472.50;;;5.43;nan
72975;BME280;61166;54.228;37.632;2023-02-27T09:15:10;99470.56;;;7.25;nan
72975;BME280;61166;54.228;37.632;2023-02-27T09:17:37;99480.19;;;6.36;nan
72975;BME280;61166;54.228;37.632;2023-02-27T09:20:04;99469.19;;;7.44;nan
72975;BME280;61166;54.228;37.632;2023-02-27T09:22:31;99481.41;;;7.07;nan
72975;BME280;61166;54.228;37.632;2023-02-27T09:24:57;99479.19;;;5.77;nan
72975;BME280;61166;54.228;37.632;2023-02-27T09:27:24;99480.38;;;5.35;nan
72975;BME280;61166;54.228;37.632;2023-02-27T09:29:50;99483.03;;;4.80;nan
72975;BME280;61166;54.228;37.632;2023-02-27T09:32:17;99492.97;;;4.76;nan
72975;BME280;61166;54.228;37.632;2023-02-27T09:34:44;99493.38;;;4.24;nan
72975;BME280;61166;54.228;37.632;2023-02-27T09:37:10;99488.16;;;4.24;nan
72975;BME280;61166;54.228;37.632;2023-02-27T09:39:37;99495.81;;;4.02;nan
72975;BME280;61166;54.228;37.632;2023-02-27T09:42:06;99491.03;;;3.64;nan
72975;BME280;61166;54.228;37.632;2023-02-27T09:47:36;99491.94;;;2.63;nan
72975;BME280;61166;54.228;37.632;2023-02-27T09:52:54;99502.72;;;1.71;nan
72975;BME280;61166;54.228;37.632;2023-02-27T09:55:21;99503.00;;;1.86;nan
72975;BME280;61166;54.228;37.632;2023-02-27T09:57:52;99511.81;;;1.93;nan
72975;BME280;61166;54.228;37.632;2023-02-27T10:00:41;99513.88;;;1.54;nan
72975;BME280;61166;54.228;37.632;2023-02-27T10:09:10;99523.31;;;1.45;nan
72975;BME280;61166;54.228;37.632;2023-02-27T10:15:22;99513.25;;;1.42;nan
72975;BME280;61166;54.228;37.632;2023-02-27T10:17:55;99523.72;;;1.50;nan
72975;BME280;61166;54.228;37.632;2023-02-27T10:20:42;99527.63;;;1.27;nan
72975;BME280;61166;54.228;37.632;2023-02-27T10:23:16;99523.41;;;1.26;nan
72975;BME280;61166;54.228;37.632;2023-02-27T10:25:46;99526.00;;;1.26;nan
72975;BME280;61166;54.228;37.632;2023-02-27T10:28:17;99523.94;;;1.29;nan
72975;BME280;61166;54.228;37.632;2023-02-27T10:30:50;99531.41;;;1.15;nan
72975;BME280;61166;54.228;37.632;2023-02-27T10:36:03;99540.47;;;0.91;nan
72975;BME280;61166;54.228;37.632;2023-02-27T10:38:37;99541.97;;;0.94;nan
72975;BME280;61166;54.228;37.632;2023-02-27T10:41:06;99538.69;;;0.92;nan
72975;BME280;61166;54.228;37.632;2023-02-27T10:43:35;99535.28;;;0.91;nan
72975;BME280;61166;54.228;37.632;2023-02-27T10:46:09;99539.97;;;0.78;nan
72975;BME280;61166;54.228;37.632;2023-02-27T10:48:37;99543.19;;;0.90;nan
72975;BME280;61166;54.228;37.632;2023-02-27T10:51:34;99548.34;;;0.99;nan
72975;BME280;61166;54.228;37.632;2023-02-27T10:54:21;99556.53;;;1.05;nan
72975;BME280;61166;54.228;37.632;2023-02-27T10:56:51;99547.50;;;1.09;nan
72975;BME280;61166;54.228;37.632;2023-02-27T10:59:22;99549.88;;;0.92;nan
72975;BME280;61166;54.228;37.632;2023-02-27T11:01:55;99551.69;;;0.63;nan
72975;BME280;61166;54.228;37.632;2023-02-27T11:04:35;99568.31;;;0.70;nan
72975;BME280;61166;54.228;37.632;2023-02-27T11:07:06;99563.81;;;0.62;nan
72975;BME280;61166;54.228;37.632;2023-02-27T11:09:33;99565.44;;;0.73;nan
72975;BME280;61166;54.228;37.632;2023-02-27T11:12:23;99567.69;;;0.29;nan
72975;BME280;61166;54.228;37.632;2023-02-27T11:17:22;99569.31;;;0.11;nan
72975;BME280;61166;54.228;37.632;2023-02-27T11:19:48;99576.25;;;0.30;nan
72975;BME280;61166;54.228;37.632;2023-02-27T11:22:20;99577.19;;;0.19;nan
72975;BME280;61166;54.228;37.632;2023-02-27T11:24:47;99580.06;;;0.16;nan
72975;BME280;61166;54.228;37.632;2023-02-27T11:27:23;99577.47;;;0.16;nan
72975;BME280;61166;54.228;37.632;2023-02-27T11:30:09;99578.81;;;0.01;nan
72975;BME280;61166;54.228;37.632;2023-02-27T11:32:46;99589.72;;;0.05;nan
72975;BME280;61166;54.228;37.632;2023-02-27T11:35:31;99595.16;;;-0.08;nan
72975;BME280;61166;54.228;37.632;2023-02-27T11:38:06;99591.63;;;-0.07;nan
72975;BME280;61166;54.228;37.632;2023-02-27T11:40:48;99602.59;;;-0.24;nan
72975;BME280;61166;54.228;37.632;2023-02-27T11:44:08;99595.38;;;-0.30;nan
72975;BME280;61166;54.228;37.632;2023-02-27T11:46:09;99594.16;;;-0.26;nan
72975;BME280;61166;54.228;37.632;2023-02-27T11:49:08;99595.22;;;-0.39;nan
72975;BME280;61166;54.228;37.632;2023-02-27T12:05:05;99601.66;;;-0.54;nan
72975;BME280;61166;54.228;37.632;2023-02-27T12:08:21;99605.69;;;-0.30;nan
72975;BME280;61166;54.228;37.632;2023-02-27T12:11:29;99619.38;;;-0.09;nan
72975;BME280;61166;54.228;37.632;2023-02-27T12:16:40;99629.88;;;-0.01;nan
72975;BME280;61166;54.228;37.632;2023-02-27T12:19:18;99621.56;;;-0.05;nan
72975;BME280;61166;54.228;37.632;2023-02-27T12:24:42;99630.53;;;0.01;nan
72975;BME280;61166;54.228;37.632;2023-02-27T12:27:23;99636.25;;;-0.05;nan
72975;BME280;61166;54.228;37.632;2023-02-27T12:30:01;99634.00;;;-0.29;nan
72975;BME280;61166;54.228;37.632;2023-02-27T12:32:41;99650.97;;;-0.36;nan
72975;BME280;61166;54.228;37.632;2023-02-27T12:37:44;99656.44;;;-0.29;nan
72975;BME280;61166;54.228;37.632;2023-02-27T12:40:19;99652.66;;;-0.25;nan
72975;BME280;61166;54.228;37.632;2023-02-27T12:54:39;99648.19;;;-0.54;nan
72975;BME280;61166;54.228;37.632;2023-02-27T12:57:36;99647.53;;;-0.77;nan
72975;BME280;61166;54.228;37.632;2023-02-27T13:00:12;99641.31;;;-0.95;nan
72975;BME280;61166;54.228;37.632;2023-02-27T13:03:03;99640.00;;;-0.89;nan
72975;BME280;61166;54.228;37.632;2023-02-27T13:05:43;99640.38;;;-0.94;nan
72975;BME280;61166;54.228;37.632;2023-02-27T13:08:37;99646.34;;;-1.14;nan
72975;BME280;61166;54.228;37.632;2023-02-27T13:14:11;99655.34;;;-1.09;nan
72975;BME280;61166;54.228;37.632;2023-02-27T13:16:43;99654.84;;;-1.03;nan
72975;BME280;61166;54.228;37.632;2023-02-27T13:19:21;99650.19;;;-1.09;nan
72975;BME280;61166;54.228;37.632;2023-02-27T13:22:10;99652.53;;;-1.06;nan
72975;BME280;61166;54.228;37.632;2023-02-27T13:25:01;99647.22;;;-1.04;nan
72975;BME280;61166;54.228;37.632;2023-02-27T13:27:34;99641.34;;;-1.16;nan
72975;BME280;61166;54.228;37.632;2023-02-27T13:33:01;99657.25;;;-1.11;nan
72975;BME280;61166;54.228;37.632;2023-02-27T13:38:03;99661.97;;;-1.16;nan
72975;BME280;61166;54.228;37.632;2023-02-27T13:40:49;99664.56;;;-1.16;nan
72975;BME280;61166;54.228;37.632;2023-02-27T13:43:35;99661.69;;;-1.13;nan
72975;BME280;61166;54.228;37.632;2023-02-27T13:46:33;99662.41;;;-1.11;nan
72975;BME280;61166;54.228;37.632;2023-02-27T13:51:46;99675.88;;;-1.28;nan
72975;BME280;61166;54.228;37.632;2023-02-27T13:59:26;99677.34;;;-1.46;nan
72975;BME280;61166;54.228;37.632;2023-02-27T14:02:02;99685.53;;;-1.41;nan
72975;BME280;61166;54.228;37.632;2023-02-27T14:04:33;99681.31;;;-1.42;nan
72975;BME280;61166;54.228;37.632;2023-02-27T14:07:08;99684.63;;;-1.51;nan
72975;BME280;61166;54.228;37.632;2023-02-27T14:09:39;99687.47;;;-1.54;nan
72975;BME280;61166;54.228;37.632;2023-02-27T23:21:08;99996.31;;;-3.38;nan
72975;BME280;61166;54.228;37.632;2023-02-27T23:23:35;99998.47;;;-3.44;nan
72975;BME280;61166;54.228;37.632;2023-02-27T23:26:02;100002.28;;;-3.62;nan
72975;BME280;61166;54.228;37.632;2023-02-27T23:28:29;100004.88;;;-3.62;nan
72975;BME280;61166;54.228;37.632;2023-02-27T23:30:56;100020.97;;;-3.73;nan
72975;BME280;61166;54.228;37.632;2023-02-27T23:35:49;100020.13;;;-3.86;nan
72975;BME280;61166;54.228;37.632;2023-02-27T23:38:16;100005.72;;;-3.89;nan
72975;BME280;61166;54.228;37.632;2023-02-27T23:40:43;100016.59;;;-3.98;nan
72975;BME280;61166;54.228;37.632;2023-02-27T23:43:10;100015.28;;;-3.91;nan
72975;BME280;61166;54.228;37.632;2023-02-27T23:45:36;100004.88;;;-4.15;nan
72975;BME280;61166;54.228;37.632;2023-02-27T23:48:03;100008.16;;;-4.13;nan
72975;BME280;61166;54.228;37.632;2023-02-27T23:50:34;100012.63;;;-4.29;nan
72975;BME280;61166;54.228;37.632;2023-02-27T23:53:02;100020.34;;;-4.43;nan
72975;BME280;61166;54.228;37.632;2023-02-27T23:55:30;100012.16;;;-4.62;nan
72975;BME280;61166;54.228;37.632;2023-02-27T23:57:59;100007.34;;;-4.95;nan
